Time;durP1;ratioP1;P1;durP2;ratioP2;P2;SDS_P1;SDS_P2;PMS_P1;PMS_P2;Temp;Humidity;BMP_temperature;BMP_pressure;BME280_temperature;BME280_humidity;BME280_pressure;Samples;Min_cycle;Max_cycle;Signal;HPM_P1;HPM_P2
2021/09/29 00:01:15;;;;;;;0.10;0.10;;;;;;;16.94;59.84;101628.63;5029531;28;20069;-81
2021/09/29 00:03:42;;;;;;;0.10;0.10;;;;;;;16.91;59.89;101620.63;5016475;28;20025;-81
2021/09/29 00:06:08;;;;;;;0.10;0.10;;;;;;;16.88;60.39;101618.09;5026950;28;20072;-82
2021/09/29 00:08:35;;;;;;;0.40;0.40;;;;;;;16.83;60.42;101615.56;5023544;28;20045;-80
2021/09/29 00:11:01;;;;;;;1.75;1.65;;;;;;;16.85;60.11;101613.72;5019735;28;20026;-81
2021/09/29 00:13:28;;;;;;;0.00;0.00;;;;;;;16.88;60.21;101602.88;5029577;28;20496;-80
2021/09/29 00:15:55;;;;;;;3.15;0.85;;;;;;;16.74;60.42;101597.16;5029108;28;20026;-81
2021/09/29 00:18:22;;;;;;;0.35;0.30;;;;;;;16.82;60.04;101598.63;5028756;28;20022;-80
2021/09/29 00:20:49;;;;;;;0.03;0.03;;;;;;;16.79;60.22;101597.84;5033295;28;20049;-79
2021/09/29 00:23:15;;;;;;;0.10;0.10;;;;;;;16.69;60.34;101591.94;5033297;28;20025;-81
2021/09/29 00:25:42;;;;;;;0.03;0.03;;;;;;;16.71;60.49;101586.53;5021397;28;20302;-80
2021/09/29 00:28:08;;;;;;;0.00;0.00;;;;;;;16.68;60.26;101579.47;5026997;28;20022;-81
2021/09/29 00:30:39;;;;;;;0.20;0.20;;;;;;;16.62;60.81;101577.00;5023181;28;20117;-81
2021/09/29 00:33:05;;;;;;;0.10;0.10;;;;;;;16.61;60.49;101567.22;5018081;28;20083;-82
2021/09/29 00:35:32;;;;;;;0.10;0.10;;;;;;;16.58;60.45;101564.69;5029882;28;20472;-82
2021/09/29 00:37:58;;;;;;;0.08;0.08;;;;;;;16.55;60.72;101571.00;5032924;28;20025;-82
2021/09/29 00:40:25;;;;;;;0.35;0.30;;;;;;;16.53;60.51;101563.97;5032191;28;20508;-82
2021/09/29 00:42:51;;;;;;;0.10;0.10;;;;;;;16.41;61.04;101560.78;5032905;28;20030;-82
2021/09/29 00:45:17;;;;;;;0.30;0.30;;;;;;;16.50;60.74;101552.44;5033132;28;20034;-83
2021/09/29 00:47:44;;;;;;;0.40;0.40;;;;;;;16.44;61.01;101541.06;5016399;28;20026;-82
2021/09/29 00:50:10;;;;;;;0.30;0.30;;;;;;;16.49;60.82;101541.78;5026547;28;20100;-82
2021/09/29 00:52:40;;;;;;;0.00;0.00;;;;;;;16.40;61.08;101540.28;5023353;28;20429;-82
2021/09/29 00:55:08;;;;;;;0.15;0.15;;;;;;;16.46;60.84;101536.53;5033129;28;20026;-83
2021/09/29 00:57:35;;;;;;;0.10;0.10;;;;;;;16.42;61.12;101534.88;5032556;28;20025;-82
2021/09/29 01:00:04;;;;;;;0.10;0.10;;;;;;;16.42;60.64;101525.06;5035108;28;20026;-81
2021/09/29 01:02:31;;;;;;;0.10;0.10;;;;;;;16.40;60.92;101521.56;5036801;28;20523;-81
2021/09/29 01:04:57;;;;;;;2.15;0.75;;;;;;;16.39;61.25;101517.16;5036367;28;20075;-81
2021/09/29 01:07:29;;;;;;;0.20;0.20;;;;;;;16.37;61.39;101515.44;5035965;28;20081;-81
2021/09/29 01:10:08;;;;;;;0.10;0.10;;;;;;;16.45;60.96;101516.06;5020837;28;20029;-81
2021/09/29 01:15:44;;;;;;;0.10;0.10;;;;;;;16.43;61.15;101513.44;5091169;27;20867;-82
2021/09/29 01:18:13;;;;;;;1.20;1.20;;;;;;;16.36;61.22;101509.22;5056596;28;20044;-82
2021/09/29 01:20:46;;;;;;;0.10;0.10;;;;;;;16.32;61.40;101508.47;5070467;28;20407;-82
2021/09/29 01:26:26;;;;;;;0.20;0.20;;;;;;;16.32;61.43;101502.22;5084700;27;20883;-82
2021/09/29 01:28:56;;;;;;;0.10;0.10;;;;;;;16.29;61.63;101489.84;5058325;28;20044;-81
2021/09/29 01:31:23;;;;;;;0.10;0.10;;;;;;;16.23;61.59;101491.84;5067050;28;20048;-82
2021/09/29 01:33:52;;;;;;;1.08;1.08;;;;;;;16.15;62.06;101490.31;5038313;28;20025;-81
2021/09/29 01:36:19;;;;;;;0.30;0.30;;;;;;;16.10;62.09;101481.56;5050525;28;20082;-81
2021/09/29 01:38:50;;;;;;;0.00;0.00;;;;;;;16.18;61.58;101479.50;5050744;28;20033;-81
2021/09/29 01:41:17;;;;;;;0.10;0.10;;;;;;;16.25;61.35;101473.94;5033077;28;20026;-81
2021/09/29 01:43:43;;;;;;;0.10;0.10;;;;;;;16.24;61.80;101466.88;5023988;28;20056;-82
2021/09/29 01:46:09;;;;;;;0.10;0.10;;;;;;;16.18;61.47;101463.44;5050326;28;20041;-82
2021/09/29 01:49:15;;;;;;;1.95;1.80;;;;;;;16.30;61.48;101461.31;5033432;28;20408;-82
2021/09/29 01:51:47;;;;;;;0.10;0.10;;;;;;;16.18;61.72;101460.78;5037513;28;20052;-83
2021/09/29 01:54:16;;;;;;;0.10;0.10;;;;;;;16.28;61.21;101458.66;5050028;28;20072;-82
2021/09/29 01:56:45;;;;;;;0.40;0.40;;;;;;;16.33;61.39;101450.50;5050176;28;20083;-82
2021/09/29 01:59:12;;;;;;;0.00;0.00;;;;;;;16.31;61.92;101444.31;5050041;28;20469;-81
2021/09/29 02:04:17;;;;;;;0.10;0.10;;;;;;;16.36;62.09;101437.00;5059883;28;20050;-80
2021/09/29 02:06:53;;;;;;;4.75;1.00;;;;;;;16.42;61.54;101433.25;5049633;28;20369;-79
2021/09/29 02:09:21;;;;;;;1.17;0.63;;;;;;;16.37;61.90;101429.88;5066190;28;20109;-81
2021/09/29 02:11:50;;;;;;;0.10;0.10;;;;;;;16.20;62.20;101426.00;5053107;28;20044;-80
2021/09/29 02:14:20;;;;;;;0.00;0.00;;;;;;;16.22;61.58;101423.25;5069752;28;20056;-79
2021/09/29 02:16:48;;;;;;;0.00;0.00;;;;;;;16.11;61.79;101413.81;5061781;28;20479;-80
2021/09/29 02:19:15;;;;;;;2.13;1.35;;;;;;;16.05;61.82;101422.03;5054060;28;20041;-80
2021/09/29 02:21:43;;;;;;;0.82;0.82;;;;;;;16.13;61.69;101411.06;5066851;28;20025;-82
2021/09/29 02:24:09;;;;;;;0.00;0.00;;;;;;;16.07;61.82;101408.63;5056495;28;20032;-80
2021/09/29 02:26:37;;;;;;;0.10;0.10;;;;;;;16.05;62.11;101406.00;5064657;28;20124;-81
2021/09/29 02:29:05;;;;;;;0.00;0.00;;;;;;;16.04;62.17;101403.34;5055285;28;20544;-82
2021/09/29 02:31:33;;;;;;;0.10;0.10;;;;;;;16.01;62.45;101404.34;5065964;28;20028;-81
2021/09/29 02:33:59;;;;;;;0.10;0.10;;;;;;;16.06;62.19;101399.69;5054439;28;20033;-83
2021/09/29 02:36:27;;;;;;;0.10;0.10;;;;;;;16.01;62.44;101396.31;5053001;28;20068;-82
2021/09/29 02:38:54;;;;;;;0.08;0.08;;;;;;;15.90;62.75;101391.34;5048735;28;20025;-81
2021/09/29 02:41:21;;;;;;;0.00;0.00;;;;;;;16.01;62.25;101380.28;5039885;28;20021;-85
2021/09/29 02:43:47;;;;;;;0.17;0.17;;;;;;;16.02;62.34;101387.38;5035947;28;20025;-84
2021/09/29 02:46:14;;;;;;;0.10;0.10;;;;;;;16.08;62.11;101388.97;5043638;28;20246;-85
2021/09/29 02:48:40;;;;;;;0.10;0.10;;;;;;;16.12;62.36;101386.13;5052757;28;20380;-84
2021/09/29 02:51:07;;;;;;;0.10;0.10;;;;;;;16.11;62.52;101392.44;5057273;28;20078;-84
2021/09/29 02:53:33;;;;;;;0.10;0.10;;;;;;;16.18;61.96;101393.06;5053128;28;20089;-84
2021/09/29 02:56:02;;;;;;;0.00;0.00;;;;;;;16.25;62.25;101393.72;5052141;28;20033;-85
2021/09/29 02:58:29;;;;;;;0.08;0.08;;;;;;;16.24;62.07;101386.66;5045984;28;20044;-86
2021/09/29 03:00:59;;;;;;;1.10;1.08;;;;;;;16.18;61.71;101391.25;5045645;28;20033;-86
2021/09/29 03:03:25;;;;;;;0.10;0.10;;;;;;;16.24;62.02;101386.66;5052296;28;20029;-85
2021/09/29 03:05:52;;;;;;;0.10;0.10;;;;;;;16.30;61.72;101386.44;5055983;28;20039;-86
2021/09/29 03:08:18;;;;;;;0.03;0.03;;;;;;;16.30;61.99;101389.13;5056220;28;20035;-84
2021/09/29 03:10:45;;;;;;;0.00;0.00;;;;;;;16.30;61.82;101389.13;5044455;28;20454;-86
2021/09/29 03:13:13;;;;;;;0.43;0.43;;;;;;;16.36;61.79;101391.53;5050972;28;20395;-86
2021/09/29 03:15:40;;;;;;;0.10;0.10;;;;;;;16.26;62.34;101390.13;5055500;28;20040;-86
2021/09/29 03:18:07;;;;;;;0.10;0.10;;;;;;;16.26;62.57;101385.66;5049436;28;20026;-86
2021/09/29 03:20:33;;;;;;;0.38;0.38;;;;;;;16.30;62.38;101386.44;5045925;28;20456;-87
2021/09/29 03:23:00;;;;;;;0.20;0.20;;;;;;;16.25;63.28;101383.03;5042875;28;20029;-87
2021/09/29 03:25:27;;;;;;;0.10;0.10;;;;;;;16.41;62.97;101383.38;5055170;28;20021;-87
2021/09/29 03:27:53;;;;;;;0.25;0.25;;;;;;;16.42;63.19;101377.94;5055251;28;20056;-84
2021/09/29 03:30:20;;;;;;;0.10;0.10;;;;;;;16.33;63.36;101370.28;5047431;28;20033;-87
2021/09/29 03:32:46;;;;;;;0.38;0.38;;;;;;;16.37;63.80;101368.38;5038166;28;20484;-87
2021/09/29 03:35:13;;;;;;;0.00;0.00;;;;;;;16.31;63.34;101365.00;5040011;28;20109;-87
2021/09/29 03:37:40;;;;;;;0.00;0.00;;;;;;;16.36;63.75;101361.25;5051647;28;20032;-88
2021/09/29 03:40:09;;;;;;;0.15;0.15;;;;;;;16.31;63.50;101367.66;5041522;28;20112;-86
2021/09/29 03:42:37;;;;;;;0.50;0.25;;;;;;;16.31;63.71;101362.31;5044496;28;20489;-85
2021/09/29 03:45:05;;;;;;;0.03;0.03;;;;;;;16.30;63.24;101357.88;5049019;28;20391;-88
2021/09/29 03:47:31;;;;;;;0.10;0.10;;;;;;;16.27;63.51;101352.63;5019806;28;20045;-85
2021/09/29 03:49:58;;;;;;;0.00;0.00;;;;;;;16.27;63.47;101359.78;5049826;28;20579;-85
2021/09/29 03:52:24;;;;;;;0.20;0.20;;;;;;;16.31;64.04;101356.97;5043324;28;20493;-89
2021/09/29 03:54:51;;;;;;;0.10;0.10;;;;;;;16.38;63.84;101354.06;5042639;28;20389;-87
2021/09/29 03:57:17;;;;;;;0.10;0.10;;;;;;;16.39;63.68;101354.00;5050638;28;20078;-87
2021/09/29 03:59:44;;;;;;;0.10;0.10;;;;;;;16.38;63.51;101354.94;5038237;28;20028;-88
2021/09/29 04:02:10;;;;;;;0.10;0.10;;;;;;;16.37;63.65;101350.50;5047486;28;20026;-88
2021/09/29 04:04:36;;;;;;;0.10;0.10;;;;;;;16.32;63.81;101342.66;5044774;28;20037;-87
2021/09/29 04:07:02;;;;;;;0.10;0.10;;;;;;;16.31;64.24;101340.03;5040651;28;20552;-88
2021/09/29 04:09:29;;;;;;;0.10;0.10;;;;;;;16.31;64.63;101329.34;5051062;28;20052;-89
2021/09/29 04:11:56;;;;;;;0.05;0.05;;;;;;;16.32;64.79;101331.09;5038871;28;20087;-86
2021/09/29 04:14:22;;;;;;;1.38;1.33;;;;;;;16.31;64.67;101337.34;5045979;28;20032;-86
2021/09/29 04:16:48;;;;;;;0.47;0.47;;;;;;;16.30;64.61;101327.63;5046206;28;20021;-88
2021/09/29 04:19:15;;;;;;;0.00;0.00;;;;;;;16.28;64.96;101334.81;5038474;28;20056;-86
2021/09/29 04:21:43;;;;;;;0.00;0.00;;;;;;;16.25;65.06;101332.22;5050862;28;20052;-88
2021/09/29 04:24:10;;;;;;;0.00;0.00;;;;;;;16.17;64.77;101320.03;5040541;28;20063;-85
2021/09/29 04:26:40;;;;;;;0.00;0.00;;;;;;;16.16;65.12;101322.75;5031558;28;20045;-88
2021/09/29 04:29:08;;;;;;;0.05;0.05;;;;;;;16.11;65.17;101317.59;5039481;28;20476;-88
2021/09/29 04:31:35;;;;;;;0.10;0.10;;;;;;;16.12;64.97;101316.63;5049822;28;20045;-85
2021/09/29 04:34:01;;;;;;;0.10;0.10;;;;;;;16.14;65.00;101324.63;5039525;28;20059;-87
2021/09/29 04:36:28;;;;;;;0.10;0.10;;;;;;;16.08;65.17;101312.31;5044868;28;20088;-88
2021/09/29 04:38:54;;;;;;;0.52;0.52;;;;;;;16.07;65.26;101302.56;5046141;28;20484;-89
2021/09/29 04:41:22;;;;;;;0.20;0.20;;;;;;;15.94;65.63;101312.81;5037546;28;20036;-87
2021/09/29 04:43:49;;;;;;;0.10;0.10;;;;;;;15.99;65.74;101312.66;5016669;28;20112;-87
2021/09/29 04:46:16;;;;;;;0.10;0.10;;;;;;;15.89;65.89;101308.53;5041460;28;20029;-87
2021/09/29 04:48:43;;;;;;;0.00;0.00;;;;;;;16.01;65.50;101309.00;5042784;28;20029;-87
2021/09/29 04:51:10;;;;;;;1.50;1.40;;;;;;;15.94;65.88;101315.50;5050306;28;20025;-86
2021/09/29 04:53:36;;;;;;;0.10;0.10;;;;;;;15.97;65.36;101309.16;5053683;28;20043;-88
2021/09/29 04:56:02;;;;;;;0.47;0.47;;;;;;;16.05;65.35;101301.75;5053665;28;20116;-86
2021/09/29 04:58:28;;;;;;;0.00;0.00;;;;;;;16.03;65.58;101303.59;5044662;28;20033;-89
2021/09/29 05:00:55;;;;;;;0.20;0.20;;;;;;;16.10;65.32;101289.09;5046220;28;20112;-88
2021/09/29 05:03:22;;;;;;;0.20;0.20;;;;;;;16.10;65.55;101304.25;5037218;28;20033;-86
2021/09/29 05:05:48;;;;;;;0.10;0.10;;;;;;;16.07;65.18;101305.22;5036772;28;20033;-83
2021/09/29 05:08:25;;;;;;;0.40;0.40;;;;;;;16.13;65.32;101299.66;5051148;28;20029;-83
2021/09/29 05:11:16;;;;;;;0.10;0.10;;;;;;;16.10;64.95;101294.44;5012662;28;20044;-87
2021/09/29 05:13:42;;;;;;;0.28;0.28;;;;;;;15.94;65.29;101294.13;5049579;28;20381;-87
2021/09/29 05:16:09;;;;;;;0.47;0.47;;;;;;;15.83;65.59;101288.28;5039456;28;20031;-86
2021/09/29 05:18:36;;;;;;;0.65;0.65;;;;;;;15.84;65.41;101288.22;5043855;28;20033;-88
2021/09/29 05:21:04;;;;;;;0.00;0.00;;;;;;;15.72;65.49;101293.09;5035642;28;20098;-86
2021/09/29 05:23:30;;;;;;;0.10;0.10;;;;;;;15.66;65.72;101283.47;5041138;28;20029;-85
2021/09/29 05:25:58;;;;;;;0.75;0.75;;;;;;;15.65;65.65;101287.06;5053475;28;20033;-84
2021/09/29 05:28:34;;;;;;;0.20;0.20;;;;;;;15.67;65.60;101288.75;5035948;28;20033;-89
2021/09/29 05:31:00;;;;;;;0.10;0.10;;;;;;;15.57;65.89;101282.00;5049915;28;20100;-85
2021/09/29 05:33:26;;;;;;;0.10;0.10;;;;;;;15.56;65.68;101282.91;5053039;28;20029;-84
2021/09/29 05:35:53;;;;;;;0.20;0.20;;;;;;;15.59;65.60;101281.94;5049399;28;20100;-82
2021/09/29 05:38:20;;;;;;;0.10;0.10;;;;;;;15.56;65.68;101276.72;5041938;28;20039;-83
2021/09/29 05:40:46;;;;;;;0.43;0.43;;;;;;;15.58;65.88;101282.88;5045293;28;20112;-87
2021/09/29 05:43:13;;;;;;;0.10;0.10;;;;;;;15.59;65.65;101276.59;5059406;28;20033;-85
2021/09/29 05:45:39;;;;;;;0.10;0.10;;;;;;;15.59;65.62;101281.94;5050514;28;20384;-87
2021/09/29 05:48:05;;;;;;;0.10;0.10;;;;;;;15.62;65.62;101284.50;5058579;28;20025;-82
2021/09/29 05:50:35;;;;;;;0.00;0.00;;;;;;;15.66;65.61;101283.47;5059655;28;20041;-85
2021/09/29 05:53:02;;;;;;;1.13;1.02;;;;;;;15.59;65.87;101281.94;5060599;28;20021;-82
2021/09/29 05:55:29;;;;;;;0.10;0.10;;;;;;;15.60;65.84;101289.03;5055124;28;20499;-82
2021/09/29 05:57:55;;;;;;;0.00;0.00;;;;;;;15.61;66.07;101290.78;5049331;28;20467;-88
2021/09/29 06:00:21;;;;;;;0.10;0.10;;;;;;;15.73;66.00;101290.34;5044735;28;20084;-84
2021/09/29 06:02:47;;;;;;;0.10;0.10;;;;;;;15.81;65.62;101292.75;5052512;28;20531;-82
2021/09/29 06:05:13;;;;;;;1.00;1.00;;;;;;;15.81;65.70;101292.75;5052406;28;20472;-82
2021/09/29 06:07:40;;;;;;;1.58;0.73;;;;;;;15.88;65.63;101293.47;5050245;28;20064;-83
2021/09/29 06:10:07;;;;;;;0.10;0.10;;;;;;;15.95;65.19;101289.63;5039064;28;20428;-86
2021/09/29 06:12:33;;;;;;;0.55;0.55;;;;;;;15.97;65.41;101294.00;5046147;28;20124;-85
2021/09/29 06:15:00;;;;;;;0.10;0.10;;;;;;;16.00;65.34;101293.91;5050230;28;20025;-84
2021/09/29 06:17:36;;;;;;;0.38;0.38;;;;;;;16.00;65.19;101299.25;5039952;28;20022;-85
2021/09/29 06:20:06;;;;;;;0.10;0.10;;;;;;;16.04;64.79;101304.47;5051136;28;20088;-83
2021/09/29 06:22:32;;;;;;;0.10;0.10;;;;;;;16.12;64.40;101302.41;5046303;28;20069;-89
2021/09/29 06:24:59;;;;;;;0.10;0.10;;;;;;;16.07;64.60;101299.88;5044671;28;20065;-88
2021/09/29 06:27:25;;;;;;;0.00;0.00;;;;;;;16.13;64.55;101314.84;5039720;28;20506;-86
2021/09/29 06:29:52;;;;;;;0.55;0.55;;;;;;;16.21;64.33;101306.53;5052341;28;20405;-89
2021/09/29 06:32:18;;;;;;;0.00;0.00;;;;;;;16.16;64.64;101304.91;5053482;22;21189;-86
2021/09/29 06:34:44;;;;;;;0.10;0.10;;;;;;;16.18;64.41;101303.03;5022505;28;20072;-79
2021/09/29 06:37:10;;;;;;;0.10;0.10;;;;;;;16.25;64.42;101302.81;5033921;28;20437;-81
2021/09/29 06:39:36;;;;;;;0.13;0.13;;;;;;;16.23;64.57;101299.34;5028810;28;20025;-80
2021/09/29 06:42:03;;;;;;;0.20;0.20;;;;;;;16.30;64.28;101295.53;5032659;28;20040;-81
2021/09/29 06:44:31;;;;;;;0.25;0.25;;;;;;;16.33;64.78;101290.06;5031358;28;20038;-80
2021/09/29 06:46:59;;;;;;;0.10;0.10;;;;;;;16.31;64.60;101298.13;5022863;28;20045;-81
2021/09/29 06:49:25;;;;;;;0.10;0.10;;;;;;;16.37;64.22;101305.03;5020524;28;20052;-80
2021/09/29 06:51:51;;;;;;;0.40;0.40;;;;;;;16.37;64.76;101312.22;5029965;28;20030;-81
2021/09/29 06:54:21;;;;;;;0.03;0.03;;;;;;;16.38;64.79;101325.50;5027906;28;20037;-81
2021/09/29 06:56:47;;;;;;;0.10;0.10;;;;;;;16.42;64.25;101319.13;5006042;28;20036;-81
2021/09/29 06:59:13;;;;;;;0.10;0.10;;;;;;;16.37;64.35;101323.75;5029923;28;20436;-79
2021/09/29 07:01:39;;;;;;;0.10;0.10;;;;;;;16.40;64.82;101329.03;5028124;28;20496;-79
2021/09/29 07:04:05;;;;;;;1.40;0.88;;;;;;;16.40;64.43;101323.66;5023911;28;20036;-81
2021/09/29 07:06:31;;;;;;;0.05;0.05;;;;;;;16.40;64.14;101329.03;5033866;28;20044;-83
2021/09/29 07:08:57;;;;;;;0.10;0.10;;;;;;;16.36;64.39;101322.00;5017131;28;20052;-82
2021/09/29 07:11:24;;;;;;;0.00;0.00;;;;;;;16.43;63.99;101311.97;5022279;28;20477;-82
2021/09/29 07:13:50;;;;;;;0.00;0.00;;;;;;;16.46;64.33;101334.13;5012303;28;20046;-81
2021/09/29 07:16:18;;;;;;;0.10;0.10;;;;;;;16.44;64.47;101344.00;5013867;28;20030;-81
2021/09/29 07:18:44;;;;;;;0.10;0.10;;;;;;;16.32;64.69;101340.00;5013667;28;20084;-81
2021/09/29 07:21:11;;;;;;;0.10;0.10;;;;;;;16.33;64.54;101343.53;5014057;28;20038;-81
2021/09/29 07:23:37;;;;;;;11.32;1.10;;;;;;;16.31;64.52;101340.03;5013676;28;20056;-81
2021/09/29 07:26:04;;;;;;;0.10;0.10;;;;;;;16.30;64.95;101343.66;5011258;28;20030;-80
2021/09/29 07:28:30;;;;;;;0.15;0.15;;;;;;;16.20;64.95;101352.91;4998065;28;20038;-80
2021/09/29 07:30:56;;;;;;;0.10;0.10;;;;;;;16.22;65.27;101361.75;5008480;28;20038;-81
2021/09/29 07:33:22;;;;;;;0.10;0.10;;;;;;;16.15;65.21;101359.31;5010269;28;20037;-81
2021/09/29 07:35:50;;;;;;;0.20;0.20;;;;;;;16.11;65.30;101364.81;5007492;28;20033;-81
2021/09/29 07:38:18;;;;;;;1.05;0.95;;;;;;;15.96;65.22;101379.56;5027726;28;20054;-82
2021/09/29 07:40:44;;;;;;;0.10;0.10;;;;;;;16.01;65.50;101377.59;5013614;28;20062;-80
2021/09/29 07:43:11;;;;;;;0.28;0.28;;;;;;;16.06;65.15;101381.00;5013771;28;20037;-81
2021/09/29 07:45:38;;;;;;;0.00;0.00;;;;;;;16.07;64.99;101381.88;5019068;28;20099;-80
2021/09/29 07:48:04;;;;;;;0.10;0.10;;;;;;;15.84;66.38;101389.75;5013515;28;20113;-80
2021/09/29 07:50:31;;;;;;;0.10;0.10;;;;;;;15.98;65.38;101385.75;5013444;28;20022;-80
2021/09/29 07:52:58;;;;;;;0.00;0.00;;;;;;;15.88;65.84;101378.97;5011982;28;20095;-78
2021/09/29 07:55:24;;;;;;;0.10;0.10;;;;;;;15.81;66.04;101384.50;5008163;28;20034;-81
2021/09/29 07:57:50;;;;;;;0.10;0.10;;;;;;;15.77;66.74;101377.47;5012867;28;20030;-81
2021/09/29 08:00:18;;;;;;;0.00;0.00;;;;;;;15.72;66.07;101379.44;5013142;28;20026;-82
2021/09/29 08:02:44;;;;;;;0.10;0.10;;;;;;;15.67;66.21;101371.56;4998961;28;20022;-83
2021/09/29 08:05:12;;;;;;;0.03;0.03;;;;;;;15.55;66.59;101371.09;5003737;28;20045;-81
2021/09/29 08:07:39;;;;;;;0.10;0.10;;;;;;;15.48;66.95;101381.97;5010226;28;20030;-83
2021/09/29 08:10:08;;;;;;;0.00;0.00;;;;;;;15.52;66.58;101372.94;4995951;28;20620;-84
2021/09/29 08:12:34;;;;;;;0.00;0.00;;;;;;;15.45;66.83;101366.06;4998109;28;20092;-85
2021/09/29 08:15:00;;;;;;;0.00;0.00;;;;;;;15.31;67.05;101378.97;5002413;28;20045;-84
2021/09/29 08:17:27;;;;;;;0.10;0.10;;;;;;;15.44;66.99;101380.34;4995315;28;20077;-88
2021/09/29 08:19:53;;;;;;;0.10;0.10;;;;;;;15.31;67.41;101374.50;5001543;28;20057;-83
2021/09/29 08:22:20;;;;;;;0.10;0.10;;;;;;;15.49;66.92;101375.72;5001067;28;20034;-82
2021/09/29 08:27:46;;;;;;;0.10;0.10;;;;;;;15.34;67.07;101378.88;5004353;28;20456;-84
2021/09/29 08:33:10;;;;;;;0.10;0.10;;;;;;;15.35;67.53;101372.59;5078814;28;20460;-86
2021/09/29 08:38:34;;;;;;;0.10;0.10;;;;;;;15.33;67.92;101370.00;5068420;28;20034;-82
2021/09/29 08:41:17;;;;;;;0.00;0.00;;;;;;;15.28;67.87;101381.75;5051577;28;20120;-83
2021/09/29 08:43:49;;;;;;;0.05;0.05;;;;;;;15.25;68.09;101396.03;5062499;28;20037;-83
2021/09/29 08:46:24;;;;;;;0.10;0.10;;;;;;;15.30;67.86;101393.22;5049123;28;20138;-84
2021/09/29 08:54:45;;;;;;;0.00;0.00;;;;;;;15.31;67.56;101395.00;5033281;28;20053;-82
2021/09/29 08:57:33;;;;;;;0.08;0.08;;;;;;;15.35;67.60;101391.28;5047985;28;20041;-83
2021/09/29 09:16:44;;;;;;;0.10;0.10;;;;;;;15.38;67.85;101409.91;5029604;28;20029;-82
2021/09/29 09:19:13;;;;;;;0.10;0.10;;;;;;;15.41;67.82;101412.47;5033758;28;20116;-79
2021/09/29 09:22:01;;;;;;;0.10;0.10;;;;;;;15.45;67.88;101402.56;5044071;28;20088;-82
2021/09/29 09:24:30;;;;;;;0.10;0.10;;;;;;;15.42;67.70;101408.88;5031969;28;20038;-83
2021/09/29 09:27:03;;;;;;;0.10;0.10;;;;;;;15.28;67.38;101421.81;5042170;28;20036;-85
2021/09/29 09:29:30;;;;;;;0.10;0.10;;;;;;;15.30;67.16;101430.63;5033408;28;20040;-85
2021/09/29 09:32:14;;;;;;;0.10;0.10;;;;;;;15.27;67.39;101436.91;5041697;28;20499;-83
2021/09/29 09:34:41;;;;;;;0.00;0.00;;;;;;;15.17;67.44;101446.13;5040435;28;20107;-81
2021/09/29 09:37:09;;;;;;;0.00;0.00;;;;;;;15.09;68.00;101453.47;5037629;28;20022;-81
2021/09/29 09:39:36;;;;;;;0.08;0.08;;;;;;;14.86;69.16;101468.34;5031199;28;20084;-83
2021/09/29 09:42:02;;;;;;;0.10;0.10;;;;;;;14.93;68.50;101485.94;5044938;28;20026;-82
2021/09/29 09:44:34;;;;;;;0.00;0.00;;;;;;;14.89;69.10;101497.59;5036501;28;20541;-82
2021/09/29 09:47:13;;;;;;;0.10;0.10;;;;;;;14.91;68.94;101476.25;5033813;28;20052;-80
2021/09/29 09:49:56;;;;;;;0.00;0.00;;;;;;;14.90;69.69;101439.81;5030928;28;20038;-82
2021/09/29 09:52:31;;;;;;;0.05;0.05;;;;;;;14.85;69.99;101439.94;5037975;28;20558;-82
2021/09/29 09:55:08;;;;;;;0.10;0.10;;;;;;;14.82;69.62;101454.22;5046394;28;20057;-84
2021/09/29 09:57:36;;;;;;;0.10;0.10;;;;;;;14.79;69.38;101478.34;5038903;28;20638;-83
2021/09/29 10:00:06;;;;;;;0.10;0.10;;;;;;;14.78;70.24;101463.25;5041135;28;20030;-83
2021/09/29 10:02:42;;;;;;;0.03;0.03;;;;;;;14.90;69.54;101454.00;5025745;28;20377;-83
2021/09/29 10:05:10;;;;;;;0.00;0.00;;;;;;;14.81;69.86;101452.47;5023099;28;20087;-83
2021/09/29 10:07:37;;;;;;;0.10;0.10;;;;;;;14.80;68.88;101480.06;5022022;28;20057;-85
2021/09/29 10:10:11;;;;;;;0.10;0.10;;;;;;;14.84;68.74;101467.50;5027264;28;20025;-83
2021/09/29 10:23:59;;;;;;;0.08;0.08;;;;;;;14.97;68.50;101492.94;5053315;28;20048;-83
2021/09/29 10:26:27;;;;;;;0.10;0.10;;;;;;;15.05;68.44;101490.06;5042703;28;20025;-84
2021/09/29 10:29:12;;;;;;;0.10;0.10;;;;;;;15.18;68.57;101488.78;5049307;28;20033;-83
2021/09/29 10:37:31;;;;;;;0.10;0.10;;;;;;;15.49;68.82;101495.91;5088494;27;20414;-83
2021/09/29 10:42:55;;;;;;;0.10;0.10;;;;;;;15.96;68.35;101490.03;5063158;28;20037;-83
2021/09/29 10:45:38;;;;;;;0.05;0.05;;;;;;;16.07;68.85;101491.47;5049417;28;20491;-83
2021/09/29 11:03:31;;;;;;;0.10;0.10;;;;;;;16.55;63.00;101511.25;5049724;28;20041;-84
2021/09/29 11:09:13;;;;;;;0.10;0.10;;;;;;;16.49;59.80;101518.56;5089605;27;20433;-84
2021/09/29 11:28:50;;;;;;;0.00;0.00;;;;;;;16.67;56.27;101567.03;5059323;28;20043;-80
2021/09/29 11:31:21;;;;;;;0.10;0.10;;;;;;;16.96;58.18;101551.81;5055833;28;20526;-79
2021/09/29 11:33:57;;;;;;;;;;;;;;;17.14;57.45;101551.13;5061964;28;20068;-81
2021/09/29 12:10:08;;;;;;;0.10;0.10;;;;;;;17.70;49.12;101604.50;5029149;28;20036;-82
2021/09/29 12:12:38;;;;;;;0.10;0.10;;;;;;;17.71;49.81;101599.06;5027799;28;20037;-82
2021/09/29 12:15:07;;;;;;;0.10;0.10;;;;;;;17.50;50.50;101618.63;5029278;28;20030;-82
2021/09/29 12:17:37;;;;;;;0.10;0.10;;;;;;;17.49;50.54;101603.47;5029270;28;20066;-82
2021/09/29 12:20:13;;;;;;;0.17;0.17;;;;;;;17.32;49.33;101613.00;5028902;28;20144;-82
2021/09/29 12:22:44;;;;;;;0.00;0.00;;;;;;;17.52;49.15;101628.34;5029740;28;20432;-82
2021/09/29 12:25:15;;;;;;;0.10;0.10;;;;;;;17.69;50.20;101611.63;5029057;28;20037;-82
2021/09/29 12:27:51;;;;;;;12.95;2.08;;;;;;;17.41;48.15;101639.47;5028981;28;20022;-81
2021/09/29 12:30:23;;;;;;;0.08;0.08;;;;;;;17.43;48.44;101632.25;5029268;28;20030;-82
2021/09/29 12:35:43;;;;;;;0.10;0.10;;;;;;;17.86;48.99;101635.13;5089455;27;21012;-81
2021/09/29 12:38:09;;;;;;;0.85;0.85;;;;;;;18.16;48.55;101636.72;5069328;28;20108;-82
2021/09/29 12:40:38;;;;;;;0.10;0.10;;;;;;;18.15;46.81;101651.06;5069507;28;20120;-82
2021/09/29 12:43:08;;;;;;;0.10;0.10;;;;;;;18.13;46.35;101636.84;5060510;28;20032;-82
2021/09/29 12:45:38;;;;;;;0.10;0.10;;;;;;;18.16;47.00;101652.81;5049367;28;20116;-81
2021/09/29 12:48:07;;;;;;;0.10;0.10;;;;;;;18.14;47.21;101646.63;5049449;28;20044;-82
2021/09/29 12:56:34;;;;;;;0.20;0.20;;;;;;;17.78;48.63;101651.50;5163598;27;20765;-82
2021/09/29 12:59:01;;;;;;;0.40;0.40;;;;;;;17.71;48.54;101674.09;5129042;28;20031;-82
2021/09/29 13:01:30;;;;;;;0.10;0.10;;;;;;;17.81;47.44;101668.38;5130425;28;20424;-81
2021/09/29 13:03:56;;;;;;;0.32;0.32;;;;;;;17.91;47.50;101669.81;5130160;27;20027;-82
2021/09/29 13:06:22;;;;;;;0.10;0.10;;;;;;;18.15;47.04;101683.25;5130468;27;20032;-82
2021/09/29 13:08:49;;;;;;;0.10;0.10;;;;;;;18.35;46.53;101675.28;5130167;27;20030;-81
2021/09/29 13:11:15;;;;;;;0.15;0.15;;;;;;;18.45;46.08;101672.25;5130280;27;20110;-81
2021/09/29 13:13:43;;;;;;;0.10;0.10;;;;;;;18.02;45.60;101694.44;5130209;27;20038;-81
2021/09/29 13:16:09;;;;;;;0.20;0.20;;;;;;;18.17;46.21;101686.72;5129618;27;20056;-81
2021/09/29 13:24:11;;;;;;;0.10;0.10;;;;;;;18.25;43.62;101688.19;5052361;28;20111;-81
2021/09/29 13:26:53;;;;;;;0.10;0.10;;;;;;;18.27;44.21;101704.25;5049623;28;20106;-81
2021/09/29 13:37:37;;;;;;;0.00;0.00;;;;;;;18.50;44.60;101714.06;5049567;28;20036;-81
2021/09/29 13:40:05;;;;;;;25.45;3.85;;;;;;;18.62;44.93;101726.13;5049183;28;20116;-81
2021/09/29 13:42:31;;;;;;;0.10;0.10;;;;;;;18.83;45.23;101723.50;5048997;28;20031;-81
2021/09/29 13:44:58;;;;;;;0.47;0.47;;;;;;;18.72;44.67;101732.00;5048991;28;20495;-81
2021/09/29 13:47:24;;;;;;;0.05;0.05;;;;;;;18.88;44.66;101716.16;5049039;28;20032;-81
2021/09/29 13:49:50;;;;;;;0.10;0.10;;;;;;;19.00;44.38;101726.38;5049176;28;20030;-81
2021/09/29 13:52:21;;;;;;;0.10;0.10;;;;;;;19.08;44.04;101728.78;5049250;28;20056;-81
2021/09/29 13:54:50;;;;;;;0.10;0.10;;;;;;;19.00;43.81;101736.28;5049299;28;20029;-81
2021/09/29 14:14:17;;;;;;;0.10;0.10;;;;;;;18.17;43.54;101768.09;5089691;27;20410;-84
2021/09/29 14:30:49;;;;;;;0.20;0.20;;;;;;;18.60;42.23;101795.09;5049189;28;20488;-83
2021/09/29 14:33:19;;;;;;;0.85;0.85;;;;;;;18.64;41.89;101790.47;5049133;28;20116;-83